sensor_id;sensor_type;location;lat;lon;timestamp;temperature;humidity
69031;DHT22;56083;48.774;8.942;2023-06-26T00:01:52;16.70;99.90
69031;DHT22;56083;48.774;8.942;2023-06-26T00:04:22;16.60;99.90
69031;DHT22;56083;48.774;8.942;2023-06-26T00:06:48;16.60;99.90
69031;DHT22;56083;48.774;8.942;2023-06-26T00:09:13;16.50;99.90
69031;DHT22;56083;48.774;8.942;2023-06-26T00:11:39;16.50;99.90
69031;DHT22;56083;48.774;8.942;2023-06-26T00:14:05;16.40;99.90
69031;DHT22;56083;48.774;8.942;2023-06-26T00:16:33;16.40;99.90
69031;DHT22;56083;48.774;8.942;2023-06-26T00:19:04;16.30;99.90
69031;DHT22;56083;48.774;8.942;2023-06-26T00:24:25;16.30;99.90
69031;DHT22;56083;48.774;8.942;2023-06-26T00:26:51;16.30;99.90
69031;DHT22;56083;48.774;8.942;2023-06-26T00:29:20;16.30;99.90
69031;DHT22;56083;48.774;8.942;2023-06-26T00:32:04;16.30;99.90
69031;DHT22;56083;48.774;8.942;2023-06-26T00:34:41;16.40;99.90
69031;DHT22;56083;48.774;8.942;2023-06-26T00:37:07;16.40;99.90
69031;DHT22;56083;48.774;8.942;2023-06-26T00:39:56;16.50;99.90
69031;DHT22;56083;48.774;8.942;2023-06-26T00:42:21;16.40;99.90
69031;DHT22;56083;48.774;8.942;2023-06-26T00:44:47;16.40;99.90
69031;DHT22;56083;48.774;8.942;2023-06-26T00:47:15;16.30;99.90
69031;DHT22;56083;48.774;8.942;2023-06-26T00:49:44;16.30;99.90
69031;DHT22;56083;48.774;8.942;2023-06-26T00:52:34;16.20;99.90
69031;DHT22;56083;48.774;8.942;2023-06-26T00:55:01;16.10;99.90
69031;DHT22;56083;48.774;8.942;2023-06-26T00:57:27;16.10;99.90
69031;DHT22;56083;48.774;8.942;2023-06-26T00:59:53;16.00;99.90
69031;DHT22;56083;48.774;8.942;2023-06-26T01:02:18;16.00;99.90
69031;DHT22;56083;48.774;8.942;2023-06-26T01:05:13;16.00;99.90
69031;DHT22;56083;48.774;8.942;2023-06-26T01:07:47;16.00;99.90
69031;DHT22;56083;48.774;8.942;2023-06-26T01:10:34;16.10;99.90
69031;DHT22;56083;48.774;8.942;2023-06-26T01:13:00;16.10;99.90
69031;DHT22;56083;48.774;8.942;2023-06-26T01:15:26;16.00;99.90
69031;DHT22;56083;48.774;8.942;2023-06-26T01:17:52;16.10;99.90
69031;DHT22;56083;48.774;8.942;2023-06-26T01:20:18;16.00;99.90
69031;DHT22;56083;48.774;8.942;2023-06-26T01:26:23;16.10;99.90
69031;DHT22;56083;48.774;8.942;2023-06-26T01:28:52;16.20;99.90
69031;DHT22;56083;48.774;8.942;2023-06-26T01:31:22;16.20;99.90
69031;DHT22;56083;48.774;8.942;2023-06-26T01:33:58;16.20;99.90
69031;DHT22;56083;48.774;8.942;2023-06-26T01:36:27;16.10;99.90
69031;DHT22;56083;48.774;8.942;2023-06-26T01:38:53;16.10;99.90
69031;DHT22;56083;48.774;8.942;2023-06-26T01:41:22;16.10;99.90
69031;DHT22;56083;48.774;8.942;2023-06-26T01:46:44;16.00;99.90
69031;DHT22;56083;48.774;8.942;2023-06-26T01:51:51;16.00;99.90
69031;DHT22;56083;48.774;8.942;2023-06-26T01:54:18;15.90;99.90
69031;DHT22;56083;48.774;8.942;2023-06-26T01:56:49;15.90;99.90
69031;DHT22;56083;48.774;8.942;2023-06-26T01:59:18;15.80;99.90
69031;DHT22;56083;48.774;8.942;2023-06-26T02:01:53;15.80;99.90
69031;DHT22;56083;48.774;8.942;2023-06-26T02:04:20;15.70;99.90
69031;DHT22;56083;48.774;8.942;2023-06-26T02:06:47;15.60;99.90
69031;DHT22;56083;48.774;8.942;2023-06-26T02:09:13;15.60;99.90
69031;DHT22;56083;48.774;8.942;2023-06-26T02:11:39;15.50;99.90
69031;DHT22;56083;48.774;8.942;2023-06-26T02:14:04;15.40;99.90
69031;DHT22;56083;48.774;8.942;2023-06-26T02:16:30;15.30;99.90
69031;DHT22;56083;48.774;8.942;2023-06-26T02:18:56;15.30;99.90
69031;DHT22;56083;48.774;8.942;2023-06-26T02:21:39;15.20;99.90
69031;DHT22;56083;48.774;8.942;2023-06-26T02:24:06;15.10;99.90
69031;DHT22;56083;48.774;8.942;2023-06-26T02:26:33;15.10;99.90
69031;DHT22;56083;48.774;8.942;2023-06-26T02:28:59;15.00;99.90
69031;DHT22;56083;48.774;8.942;2023-06-26T02:31:25;15.00;99.90
69031;DHT22;56083;48.774;8.942;2023-06-26T02:33:52;15.00;99.90
69031;DHT22;56083;48.774;8.942;2023-06-26T02:36:17;14.90;99.90
69031;DHT22;56083;48.774;8.942;2023-06-26T02:38:46;14.90;99.90
69031;DHT22;56083;48.774;8.942;2023-06-26T02:41:12;15.00;99.90
69031;DHT22;56083;48.774;8.942;2023-06-26T02:43:38;15.00;99.90
69031;DHT22;56083;48.774;8.942;2023-06-26T02:46:05;15.00;99.90
69031;DHT22;56083;48.774;8.942;2023-06-26T02:48:31;15.00;99.90
69031;DHT22;56083;48.774;8.942;2023-06-26T02:50:58;15.00;99.90
69031;DHT22;56083;48.774;8.942;2023-06-26T02:53:24;15.00;99.90
69031;DHT22;56083;48.774;8.942;2023-06-26T02:55:50;15.00;99.90
69031;DHT22;56083;48.774;8.942;2023-06-26T02:58:16;15.00;99.90
69031;DHT22;56083;48.774;8.942;2023-06-26T03:00:41;15.00;99.90
69031;DHT22;56083;48.774;8.942;2023-06-26T03:03:08;15.00;99.90
69031;DHT22;56083;48.774;8.942;2023-06-26T03:05:34;15.10;99.90
69031;DHT22;56083;48.774;8.942;2023-06-26T03:08:01;15.10;99.90
69031;DHT22;56083;48.774;8.942;2023-06-26T03:10:27;15.00;99.90
69031;DHT22;56083;48.774;8.942;2023-06-26T03:12:52;15.00;99.90
69031;DHT22;56083;48.774;8.942;2023-06-26T03:15:18;15.00;99.90
69031;DHT22;56083;48.774;8.942;2023-06-26T03:17:44;15.00;99.90
69031;DHT22;56083;48.774;8.942;2023-06-26T03:20:10;15.00;99.90
69031;DHT22;56083;48.774;8.942;2023-06-26T03:22:36;14.90;99.90
69031;DHT22;56083;48.774;8.942;2023-06-26T03:25:02;15.00;99.90
69031;DHT22;56083;48.774;8.942;2023-06-26T03:27:28;14.90;99.90
69031;DHT22;56083;48.774;8.942;2023-06-26T03:29:54;15.00;99.90
69031;DHT22;56083;48.774;8.942;2023-06-26T03:32:19;15.00;99.90
69031;DHT22;56083;48.774;8.942;2023-06-26T03:34:45;14.90;99.90
69031;DHT22;56083;48.774;8.942;2023-06-26T03:37:10;14.90;99.90
69031;DHT22;56083;48.774;8.942;2023-06-26T03:39:36;15.00;99.90
69031;DHT22;56083;48.774;8.942;2023-06-26T03:42:02;14.90;99.90
69031;DHT22;56083;48.774;8.942;2023-06-26T03:44:27;14.90;99.90
69031;DHT22;56083;48.774;8.942;2023-06-26T03:46:53;15.00;99.90
69031;DHT22;56083;48.774;8.942;2023-06-26T03:49:19;15.00;99.90
69031;DHT22;56083;48.774;8.942;2023-06-26T03:51:45;15.00;99.90
69031;DHT22;56083;48.774;8.942;2023-06-26T03:54:11;15.00;99.90
69031;DHT22;56083;48.774;8.942;2023-06-26T03:56:36;15.00;99.90
69031;DHT22;56083;48.774;8.942;2023-06-26T03:59:02;14.90;99.90
69031;DHT22;56083;48.774;8.942;2023-06-26T04:01:28;15.00;99.90
69031;DHT22;56083;48.774;8.942;2023-06-26T04:03:54;14.90;99.90
69031;DHT22;56083;48.774;8.942;2023-06-26T04:06:20;14.90;99.90
69031;DHT22;56083;48.774;8.942;2023-06-26T04:08:45;14.90;99.90
69031;DHT22;56083;48.774;8.942;2023-06-26T04:11:11;14.90;99.90
69031;DHT22;56083;48.774;8.942;2023-06-26T04:13:37;15.00;99.90
69031;DHT22;56083;48.774;8.942;2023-06-26T04:16:02;15.00;99.90
69031;DHT22;56083;48.774;8.942;2023-06-26T04:18:28;15.10;99.90
69031;DHT22;56083;48.774;8.942;2023-06-26T04:21:13;15.10;99.90
69031;DHT22;56083;48.774;8.942;2023-06-26T04:23:40;15.20;99.90
69031;DHT22;56083;48.774;8.942;2023-06-26T04:26:06;15.30;99.90
69031;DHT22;56083;48.774;8.942;2023-06-26T04:28:35;15.40;99.90
69031;DHT22;56083;48.774;8.942;2023-06-26T04:31:02;15.50;99.90
69031;DHT22;56083;48.774;8.942;2023-06-26T04:33:29;15.70;99.90
69031;DHT22;56083;48.774;8.942;2023-06-26T04:35:55;15.80;99.90
69031;DHT22;56083;48.774;8.942;2023-06-26T04:38:20;15.90;99.90
69031;DHT22;56083;48.774;8.942;2023-06-26T04:40:48;16.10;99.90
69031;DHT22;56083;48.774;8.942;2023-06-26T04:43:14;16.20;99.90
69031;DHT22;56083;48.774;8.942;2023-06-26T04:45:40;16.40;99.90
69031;DHT22;56083;48.774;8.942;2023-06-26T04:48:05;16.60;99.90
69031;DHT22;56083;48.774;8.942;2023-06-26T04:50:31;16.80;99.90
69031;DHT22;56083;48.774;8.942;2023-06-26T04:52:57;16.90;99.90
69031;DHT22;56083;48.774;8.942;2023-06-26T04:55:26;17.10;99.90
69031;DHT22;56083;48.774;8.942;2023-06-26T04:57:52;17.20;99.90
69031;DHT22;56083;48.774;8.942;2023-06-26T05:00:18;17.30;99.90
69031;DHT22;56083;48.774;8.942;2023-06-26T05:02:44;17.50;99.90
69031;DHT22;56083;48.774;8.942;2023-06-26T05:05:09;17.60;99.90
69031;DHT22;56083;48.774;8.942;2023-06-26T05:07:36;17.80;99.90
69031;DHT22;56083;48.774;8.942;2023-06-26T05:10:01;17.90;99.90
69031;DHT22;56083;48.774;8.942;2023-06-26T05:12:27;18.10;99.90
69031;DHT22;56083;48.774;8.942;2023-06-26T05:14:53;18.20;99.90
69031;DHT22;56083;48.774;8.942;2023-06-26T05:17:18;18.40;99.90
69031;DHT22;56083;48.774;8.942;2023-06-26T05:19:44;18.60;99.90
69031;DHT22;56083;48.774;8.942;2023-06-26T05:22:10;18.80;99.90
69031;DHT22;56083;48.774;8.942;2023-06-26T05:24:38;19.00;99.90
69031;DHT22;56083;48.774;8.942;2023-06-26T05:27:04;19.20;99.90
69031;DHT22;56083;48.774;8.942;2023-06-26T05:29:31;19.30;99.90
69031;DHT22;56083;48.774;8.942;2023-06-26T05:31:57;19.40;99.90
69031;DHT22;56083;48.774;8.942;2023-06-26T05:34:23;19.60;99.90
69031;DHT22;56083;48.774;8.942;2023-06-26T05:36:56;19.70;99.90
69031;DHT22;56083;48.774;8.942;2023-06-26T05:39:22;19.90;99.90
69031;DHT22;56083;48.774;8.942;2023-06-26T05:41:48;20.00;99.90
69031;DHT22;56083;48.774;8.942;2023-06-26T05:44:14;20.20;99.90
69031;DHT22;56083;48.774;8.942;2023-06-26T05:46:40;20.30;99.90
69031;DHT22;56083;48.774;8.942;2023-06-26T05:49:05;20.50;99.90
69031;DHT22;56083;48.774;8.942;2023-06-26T05:51:32;20.70;99.90
69031;DHT22;56083;48.774;8.942;2023-06-26T05:53:58;20.80;99.90
69031;DHT22;56083;48.774;8.942;2023-06-26T05:56:24;20.90;99.90
69031;DHT22;56083;48.774;8.942;2023-06-26T05:58:51;21.10;99.90
69031;DHT22;56083;48.774;8.942;2023-06-26T06:01:17;21.30;99.90
69031;DHT22;56083;48.774;8.942;2023-06-26T06:03:43;21.50;99.90
69031;DHT22;56083;48.774;8.942;2023-06-26T06:06:08;21.60;99.90
69031;DHT22;56083;48.774;8.942;2023-06-26T06:08:35;21.90;99.90
69031;DHT22;56083;48.774;8.942;2023-06-26T06:11:01;22.00;99.90
69031;DHT22;56083;48.774;8.942;2023-06-26T06:13:27;22.20;99.90
69031;DHT22;56083;48.774;8.942;2023-06-26T06:15:53;22.40;99.90
69031;DHT22;56083;48.774;8.942;2023-06-26T06:18:20;22.50;99.90
69031;DHT22;56083;48.774;8.942;2023-06-26T06:20:46;22.80;99.90
69031;DHT22;56083;48.774;8.942;2023-06-26T06:23:11;23.00;99.90
69031;DHT22;56083;48.774;8.942;2023-06-26T06:25:37;23.20;99.90
69031;DHT22;56083;48.774;8.942;2023-06-26T06:28:04;23.30;99.90
69031;DHT22;56083;48.774;8.942;2023-06-26T06:30:32;23.50;99.90
69031;DHT22;56083;48.774;8.942;2023-06-26T06:33:02;23.70;99.90
69031;DHT22;56083;48.774;8.942;2023-06-26T06:35:31;23.90;99.90
69031;DHT22;56083;48.774;8.942;2023-06-26T06:38:01;24.10;99.90
69031;DHT22;56083;48.774;8.942;2023-06-26T06:44:08;24.80;99.90
69031;DHT22;56083;48.774;8.942;2023-06-26T06:46:43;25.10;99.90
69031;DHT22;56083;48.774;8.942;2023-06-26T06:56:00;26.10;99.90
69031;DHT22;56083;48.774;8.942;2023-06-26T06:58:37;26.40;99.90
69031;DHT22;56083;48.774;8.942;2023-06-26T07:01:11;26.70;99.90
69031;DHT22;56083;48.774;8.942;2023-06-26T07:03:40;27.00;99.90
69031;DHT22;56083;48.774;8.942;2023-06-26T07:08:42;27.60;99.90
69031;DHT22;56083;48.774;8.942;2023-06-26T07:21:37;28.30;99.90
69031;DHT22;56083;48.774;8.942;2023-06-26T07:24:03;28.50;99.90
69031;DHT22;56083;48.774;8.942;2023-06-26T07:26:51;28.80;99.90
69031;DHT22;56083;48.774;8.942;2023-06-26T07:29:40;29.00;99.90
69031;DHT22;56083;48.774;8.942;2023-06-26T07:32:37;29.20;98.90
69031;DHT22;56083;48.774;8.942;2023-06-26T07:35:16;29.40;96.70
69031;DHT22;56083;48.774;8.942;2023-06-26T07:38:03;29.50;95.30
69031;DHT22;56083;48.774;8.942;2023-06-26T07:40:31;29.60;95.70
69031;DHT22;56083;48.774;8.942;2023-06-26T07:43:35;29.80;94.60
69031;DHT22;56083;48.774;8.942;2023-06-26T07:46:06;29.90;93.30
69031;DHT22;56083;48.774;8.942;2023-06-26T07:48:44;29.90;92.30
69031;DHT22;56083;48.774;8.942;2023-06-26T07:51:44;30.00;92.40
69031;DHT22;56083;48.774;8.942;2023-06-26T07:57:06;30.30;90.30
69031;DHT22;56083;48.774;8.942;2023-06-26T07:59:43;30.50;89.20
69031;DHT22;56083;48.774;8.942;2023-06-26T08:02:12;30.90;87.70
69031;DHT22;56083;48.774;8.942;2023-06-26T08:04:51;31.00;88.10
69031;DHT22;56083;48.774;8.942;2023-06-26T08:07:19;31.00;85.90
69031;DHT22;56083;48.774;8.942;2023-06-26T08:09:47;31.20;85.50
69031;DHT22;56083;48.774;8.942;2023-06-26T08:12:16;31.60;83.80
69031;DHT22;56083;48.774;8.942;2023-06-26T08:15:11;31.70;82.90
69031;DHT22;56083;48.774;8.942;2023-06-26T08:17:40;32.00;81.50
69031;DHT22;56083;48.774;8.942;2023-06-26T08:20:15;32.20;80.60
69031;DHT22;56083;48.774;8.942;2023-06-26T08:23:12;32.50;78.10
69031;DHT22;56083;48.774;8.942;2023-06-26T08:25:42;32.90;78.00
69031;DHT22;56083;48.774;8.942;2023-06-26T08:28:12;33.70;75.20
69031;DHT22;56083;48.774;8.942;2023-06-26T08:30:54;33.90;72.50
69031;DHT22;56083;48.774;8.942;2023-06-26T08:33:43;33.80;72.10
69031;DHT22;56083;48.774;8.942;2023-06-26T08:36:34;34.20;70.70
69031;DHT22;56083;48.774;8.942;2023-06-26T08:41:45;35.30;68.00
69031;DHT22;56083;48.774;8.942;2023-06-26T08:44:49;35.70;64.80
69031;DHT22;56083;48.774;8.942;2023-06-26T08:47:32;36.00;62.70
69031;DHT22;56083;48.774;8.942;2023-06-26T08:50:29;36.00;62.90
69031;DHT22;56083;48.774;8.942;2023-06-26T08:56:44;36.30;59.40
69031;DHT22;56083;48.774;8.942;2023-06-26T08:59:55;36.60;58.00
69031;DHT22;56083;48.774;8.942;2023-06-26T09:02:27;36.70;58.30
69031;DHT22;56083;48.774;8.942;2023-06-26T09:05:02;36.00;57.80
69031;DHT22;56083;48.774;8.942;2023-06-26T09:07:49;36.70;58.80
69031;DHT22;56083;48.774;8.942;2023-06-26T09:10:14;37.80;57.50
69031;DHT22;56083;48.774;8.942;2023-06-26T09:12:40;38.20;55.60
69031;DHT22;56083;48.774;8.942;2023-06-26T09:15:06;39.00;55.00
69031;DHT22;56083;48.774;8.942;2023-06-26T09:17:39;39.70;52.40
69031;DHT22;56083;48.774;8.942;2023-06-26T09:20:08;38.00;53.10
69031;DHT22;56083;48.774;8.942;2023-06-26T09:22:41;36.70;55.20
69031;DHT22;56083;48.774;8.942;2023-06-26T09:25:08;36.60;55.10
69031;DHT22;56083;48.774;8.942;2023-06-26T09:27:35;37.30;54.60
69031;DHT22;56083;48.774;8.942;2023-06-26T09:30:05;37.20;54.70
69031;DHT22;56083;48.774;8.942;2023-06-26T09:32:34;37.50;54.00
69031;DHT22;56083;48.774;8.942;2023-06-26T09:35:02;37.10;54.00
69031;DHT22;56083;48.774;8.942;2023-06-26T09:37:28;37.10;54.40
69031;DHT22;56083;48.774;8.942;2023-06-26T09:39:54;37.80;53.80
69031;DHT22;56083;48.774;8.942;2023-06-26T09:42:20;37.90;53.20
69031;DHT22;56083;48.774;8.942;2023-06-26T09:44:46;38.40;50.90
69031;DHT22;56083;48.774;8.942;2023-06-26T09:47:13;38.20;50.90
69031;DHT22;56083;48.774;8.942;2023-06-26T09:49:42;37.00;52.40
69031;DHT22;56083;48.774;8.942;2023-06-26T09:52:15;36.60;54.20
69031;DHT22;56083;48.774;8.942;2023-06-26T09:54:45;37.00;52.90
69031;DHT22;56083;48.774;8.942;2023-06-26T09:57:13;36.10;53.00
69031;DHT22;56083;48.774;8.942;2023-06-26T09:59:41;35.80;54.60
69031;DHT22;56083;48.774;8.942;2023-06-26T10:02:08;36.00;53.70
69031;DHT22;56083;48.774;8.942;2023-06-26T10:04:34;35.30;54.60
69031;DHT22;56083;48.774;8.942;2023-06-26T10:07:10;34.70;57.60
69031;DHT22;56083;48.774;8.942;2023-06-26T10:09:41;34.10;59.60
69031;DHT22;56083;48.774;8.942;2023-06-26T10:12:12;33.80;62.10
69031;DHT22;56083;48.774;8.942;2023-06-26T10:14:41;34.60;60.70
69031;DHT22;56083;48.774;8.942;2023-06-26T10:17:10;35.10;59.30
69031;DHT22;56083;48.774;8.942;2023-06-26T10:19:38;35.50;59.00
69031;DHT22;56083;48.774;8.942;2023-06-26T10:22:05;35.80;57.60
69031;DHT22;56083;48.774;8.942;2023-06-26T10:24:33;35.00;59.00
69031;DHT22;56083;48.774;8.942;2023-06-26T10:27:20;35.90;57.90
69031;DHT22;56083;48.774;8.942;2023-06-26T10:29:55;34.50;58.50
69031;DHT22;56083;48.774;8.942;2023-06-26T10:32:24;33.40;61.30
69031;DHT22;56083;48.774;8.942;2023-06-26T10:34:51;33.10;62.30
69031;DHT22;56083;48.774;8.942;2023-06-26T10:37:18;34.00;62.50
69031;DHT22;56083;48.774;8.942;2023-06-26T10:39:52;34.50;60.00
69031;DHT22;56083;48.774;8.942;2023-06-26T10:42:34;34.80;58.50
69031;DHT22;56083;48.774;8.942;2023-06-26T10:45:09;34.30;58.50
69031;DHT22;56083;48.774;8.942;2023-06-26T10:47:36;33.30;59.60
69031;DHT22;56083;48.774;8.942;2023-06-26T10:50:25;32.50;62.00
69031;DHT22;56083;48.774;8.942;2023-06-26T10:55:42;30.80;65.40
69031;DHT22;56083;48.774;8.942;2023-06-26T11:01:18;31.50;68.80
69031;DHT22;56083;48.774;8.942;2023-06-26T11:03:46;32.60;66.90
69031;DHT22;56083;48.774;8.942;2023-06-26T11:06:13;32.60;66.60
69031;DHT22;56083;48.774;8.942;2023-06-26T11:08:53;32.00;68.50
69031;DHT22;56083;48.774;8.942;2023-06-26T11:11:22;31.40;69.50
69031;DHT22;56083;48.774;8.942;2023-06-26T11:14:08;31.30;70.20
69031;DHT22;56083;48.774;8.942;2023-06-26T11:16:35;30.80;71.00
69031;DHT22;56083;48.774;8.942;2023-06-26T11:19:01;31.20;72.10
69031;DHT22;56083;48.774;8.942;2023-06-26T11:21:27;32.50;69.30
69031;DHT22;56083;48.774;8.942;2023-06-26T11:23:53;33.20;67.20
69031;DHT22;56083;48.774;8.942;2023-06-26T11:26:23;33.80;66.00
69031;DHT22;56083;48.774;8.942;2023-06-26T11:28:50;34.70;65.40
69031;DHT22;56083;48.774;8.942;2023-06-26T11:31:30;35.80;62.10
69031;DHT22;56083;48.774;8.942;2023-06-26T11:33:58;36.60;59.80
69031;DHT22;56083;48.774;8.942;2023-06-26T11:36:25;37.10;59.10
69031;DHT22;56083;48.774;8.942;2023-06-26T11:39:01;37.80;57.80
69031;DHT22;56083;48.774;8.942;2023-06-26T11:41:44;37.60;57.60
69031;DHT22;56083;48.774;8.942;2023-06-26T11:44:13;37.30;58.10
69031;DHT22;56083;48.774;8.942;2023-06-26T11:46:46;37.00;59.70
69031;DHT22;56083;48.774;8.942;2023-06-26T11:49:22;36.70;58.50
69031;DHT22;56083;48.774;8.942;2023-06-26T11:52:02;35.60;60.40
69031;DHT22;56083;48.774;8.942;2023-06-26T11:54:32;36.60;59.30
69031;DHT22;56083;48.774;8.942;2023-06-26T11:57:01;37.20;60.00
69031;DHT22;56083;48.774;8.942;2023-06-26T11:59:39;37.30;58.30
69031;DHT22;56083;48.774;8.942;2023-06-26T12:02:10;37.10;58.20
69031;DHT22;56083;48.774;8.942;2023-06-26T12:04:37;37.30;58.60
69031;DHT22;56083;48.774;8.942;2023-06-26T12:07:08;37.50;58.20
69031;DHT22;56083;48.774;8.942;2023-06-26T12:09:54;37.20;58.10
69031;DHT22;56083;48.774;8.942;2023-06-26T12:12:25;37.80;57.90
69031;DHT22;56083;48.774;8.942;2023-06-26T12:14:52;37.40;57.50
69031;DHT22;56083;48.774;8.942;2023-06-26T12:17:23;37.00;57.90
69031;DHT22;56083;48.774;8.942;2023-06-26T12:19:49;36.50;59.30
69031;DHT22;56083;48.774;8.942;2023-06-26T12:22:17;36.50;59.50
69031;DHT22;56083;48.774;8.942;2023-06-26T12:24:48;36.80;58.70
69031;DHT22;56083;48.774;8.942;2023-06-26T12:27:17;36.30;59.50
69031;DHT22;56083;48.774;8.942;2023-06-26T12:30:16;35.80;60.10
69031;DHT22;56083;48.774;8.942;2023-06-26T12:32:46;36.20;60.40
69031;DHT22;56083;48.774;8.942;2023-06-26T12:35:17;36.00;59.90
69031;DHT22;56083;48.774;8.942;2023-06-26T12:37:45;35.80;60.60
69031;DHT22;56083;48.774;8.942;2023-06-26T12:40:23;36.50;59.40
69031;DHT22;56083;48.774;8.942;2023-06-26T12:42:50;36.60;58.80
69031;DHT22;56083;48.774;8.942;2023-06-26T12:45:16;36.50;59.50
69031;DHT22;56083;48.774;8.942;2023-06-26T12:48:40;36.60;59.40
69031;DHT22;56083;48.774;8.942;2023-06-26T12:51:34;36.90;59.40
69031;DHT22;56083;48.774;8.942;2023-06-26T12:54:18;37.70;57.10
69031;DHT22;56083;48.774;8.942;2023-06-26T12:56:45;37.80;56.00
69031;DHT22;56083;48.774;8.942;2023-06-26T12:59:13;37.10;57.30
69031;DHT22;56083;48.774;8.942;2023-06-26T13:01:39;36.40;57.00
69031;DHT22;56083;48.774;8.942;2023-06-26T13:04:06;35.70;59.20
69031;DHT22;56083;48.774;8.942;2023-06-26T13:06:40;35.90;58.70
69031;DHT22;56083;48.774;8.942;2023-06-26T13:09:07;35.90;58.90
69031;DHT22;56083;48.774;8.942;2023-06-26T13:11:33;35.60;58.00
69031;DHT22;56083;48.774;8.942;2023-06-26T13:14:00;35.30;58.90
69031;DHT22;56083;48.774;8.942;2023-06-26T13:16:26;35.50;58.50
69031;DHT22;56083;48.774;8.942;2023-06-26T13:18:51;36.00;57.60
69031;DHT22;56083;48.774;8.942;2023-06-26T13:21:17;36.30;56.00
69031;DHT22;56083;48.774;8.942;2023-06-26T13:23:44;36.70;56.10
69031;DHT22;56083;48.774;8.942;2023-06-26T13:26:09;37.10;54.70
69031;DHT22;56083;48.774;8.942;2023-06-26T13:28:36;36.30;55.10
69031;DHT22;56083;48.774;8.942;2023-06-26T13:31:02;35.90;55.90
69031;DHT22;56083;48.774;8.942;2023-06-26T13:33:28;36.00;55.10
69031;DHT22;56083;48.774;8.942;2023-06-26T13:35:57;36.00;54.30
69031;DHT22;56083;48.774;8.942;2023-06-26T13:39:02;35.80;54.90
69031;DHT22;56083;48.774;8.942;2023-06-26T13:41:57;36.00;54.60
69031;DHT22;56083;48.774;8.942;2023-06-26T13:44:26;35.90;54.50
69031;DHT22;56083;48.774;8.942;2023-06-26T13:47:03;35.80;54.70
69031;DHT22;56083;48.774;8.942;2023-06-26T13:49:35;35.70;54.70
69031;DHT22;56083;48.774;8.942;2023-06-26T13:55:50;36.70;53.60
69031;DHT22;56083;48.774;8.942;2023-06-26T13:58:19;36.50;52.80
69031;DHT22;56083;48.774;8.942;2023-06-26T14:00:47;36.00;53.40
69031;DHT22;56083;48.774;8.942;2023-06-26T14:03:19;35.60;54.20
69031;DHT22;56083;48.774;8.942;2023-06-26T14:05:45;35.50;54.10
69031;DHT22;56083;48.774;8.942;2023-06-26T14:08:24;35.40;54.00
69031;DHT22;56083;48.774;8.942;2023-06-26T14:10:53;35.20;54.10
69031;DHT22;56083;48.774;8.942;2023-06-26T14:13:29;35.30;54.30
69031;DHT22;56083;48.774;8.942;2023-06-26T14:15:56;35.40;53.70
69031;DHT22;56083;48.774;8.942;2023-06-26T14:18:27;34.80;53.80
69031;DHT22;56083;48.774;8.942;2023-06-26T14:20:53;34.90;54.20
69031;DHT22;56083;48.774;8.942;2023-06-26T14:23:29;34.90;54.70
69031;DHT22;56083;48.774;8.942;2023-06-26T14:26:02;34.50;54.80
69031;DHT22;56083;48.774;8.942;2023-06-26T14:28:30;34.70;55.60
69031;DHT22;56083;48.774;8.942;2023-06-26T14:30:55;34.90;54.50
69031;DHT22;56083;48.774;8.942;2023-06-26T14:33:21;34.20;55.40
69031;DHT22;56083;48.774;8.942;2023-06-26T14:39:04;34.60;55.50
69031;DHT22;56083;48.774;8.942;2023-06-26T14:41:30;34.30;55.50
69031;DHT22;56083;48.774;8.942;2023-06-26T14:44:08;34.40;56.10
69031;DHT22;56083;48.774;8.942;2023-06-26T14:46:37;34.30;56.50
69031;DHT22;56083;48.774;8.942;2023-06-26T14:49:07;34.80;55.40
69031;DHT22;56083;48.774;8.942;2023-06-26T14:54:16;34.50;54.80
69031;DHT22;56083;48.774;8.942;2023-06-26T14:56:43;33.70;56.30
69031;DHT22;56083;48.774;8.942;2023-06-26T14:59:11;33.20;57.00
69031;DHT22;56083;48.774;8.942;2023-06-26T15:01:38;32.20;57.00
69031;DHT22;56083;48.774;8.942;2023-06-26T15:04:05;32.20;57.60
69031;DHT22;56083;48.774;8.942;2023-06-26T15:06:30;32.20;57.80
69031;DHT22;56083;48.774;8.942;2023-06-26T15:08:56;32.20;57.40
69031;DHT22;56083;48.774;8.942;2023-06-26T15:11:22;32.50;57.60
69031;DHT22;56083;48.774;8.942;2023-06-26T15:13:47;32.20;57.40
69031;DHT22;56083;48.774;8.942;2023-06-26T15:16:18;32.20;58.20
69031;DHT22;56083;48.774;8.942;2023-06-26T15:18:45;31.70;58.70
69031;DHT22;56083;48.774;8.942;2023-06-26T15:21:22;31.60;59.30
69031;DHT22;56083;48.774;8.942;2023-06-26T15:24:20;31.80;58.60
69031;DHT22;56083;48.774;8.942;2023-06-26T15:27:59;31.70;58.70
69031;DHT22;56083;48.774;8.942;2023-06-26T15:30:52;31.10;58.80
69031;DHT22;56083;48.774;8.942;2023-06-26T15:33:48;30.30;60.40
69031;DHT22;56083;48.774;8.942;2023-06-26T15:36:16;30.30;61.60
69031;DHT22;56083;48.774;8.942;2023-06-26T15:38:57;30.50;61.60
69031;DHT22;56083;48.774;8.942;2023-06-26T15:41:22;30.90;60.70
69031;DHT22;56083;48.774;8.942;2023-06-26T15:47:12;30.20;62.20
69031;DHT22;56083;48.774;8.942;2023-06-26T15:50:25;30.00;62.10
69031;DHT22;56083;48.774;8.942;2023-06-26T15:53:02;29.50;63.10
69031;DHT22;56083;48.774;8.942;2023-06-26T15:55:28;29.30;63.90
69031;DHT22;56083;48.774;8.942;2023-06-26T15:57:54;29.10;64.00
69031;DHT22;56083;48.774;8.942;2023-06-26T16:00:19;28.60;64.60
69031;DHT22;56083;48.774;8.942;2023-06-26T16:02:45;28.10;65.90
69031;DHT22;56083;48.774;8.942;2023-06-26T16:05:11;27.70;66.30
69031;DHT22;56083;48.774;8.942;2023-06-26T16:07:37;27.60;65.80
69031;DHT22;56083;48.774;8.942;2023-06-26T16:10:02;27.50;66.10
69031;DHT22;56083;48.774;8.942;2023-06-26T16:12:28;27.30;66.80
69031;DHT22;56083;48.774;8.942;2023-06-26T16:14:54;27.20;67.00
69031;DHT22;56083;48.774;8.942;2023-06-26T16:17:19;27.20;66.90
69031;DHT22;56083;48.774;8.942;2023-06-26T16:19:45;27.10;65.90
69031;DHT22;56083;48.774;8.942;2023-06-26T16:22:10;27.10;66.40
69031;DHT22;56083;48.774;8.942;2023-06-26T16:24:36;27.20;66.00
69031;DHT22;56083;48.774;8.942;2023-06-26T16:27:02;27.30;65.80
69031;DHT22;56083;48.774;8.942;2023-06-26T16:29:27;27.40;64.60
69031;DHT22;56083;48.774;8.942;2023-06-26T16:31:53;27.80;64.30
69031;DHT22;56083;48.774;8.942;2023-06-26T16:34:22;28.10;61.60
69031;DHT22;56083;48.774;8.942;2023-06-26T16:36:48;28.00;61.80
69031;DHT22;56083;48.774;8.942;2023-06-26T16:39:18;28.20;61.70
69031;DHT22;56083;48.774;8.942;2023-06-26T16:41:48;28.30;59.40
69031;DHT22;56083;48.774;8.942;2023-06-26T16:44:22;28.30;58.80
69031;DHT22;56083;48.774;8.942;2023-06-26T16:46:47;28.30;57.90
69031;DHT22;56083;48.774;8.942;2023-06-26T16:49:13;27.80;58.80
69031;DHT22;56083;48.774;8.942;2023-06-26T16:51:39;27.80;58.50
69031;DHT22;56083;48.774;8.942;2023-06-26T16:54:05;27.50;58.10
69031;DHT22;56083;48.774;8.942;2023-06-26T16:56:30;27.00;58.80